Terminal Aerodrome Forecast
Issued by NWS Hastings, NE

Home | Current Version | Previous Version | Text Only | Print | Product List | Glossary On
Versions: 1 2 3 4 5 6 7 8 9 10 11 12 13 14 15 16 17 18
000
FTUS45 KGID 232320
TAFEAR
TAF
KEAR 232320Z 2400/2424 16018G26KT P6SM BKN150
     FM240200 16020G28KT P6SM VCTS SCT060CB BKN110 WS010/18045KT
     FM240600 16017G25KT P6SM VCSH BKN090
     FM240800 10014G22KT P6SM VCSH BKN035
     FM240900 08013G20KT 6SM -SHRA OVC025
     FM241100 05015G23KT 6SM -SHRA OVC008
     FM241700 02016G24KT 5SM -SHRA BKN008
     FM242100 01018G25KT 6SM -SHRA BKN010
      AMD LTD TO CLD VIS AND WIND=

USA.gov is the U.S. government's official web portal to all federal, state and local government web resources and services.